createdAt,value
2018-05-01T00:00:16.624Z,95484.09
2018-05-01T00:02:46.196Z,95484.59
2018-05-01T00:05:16.114Z,95483.81
2018-05-01T00:07:46.022Z,95488.41
2018-05-01T00:10:15.532Z,95489.14
2018-05-01T00:12:45.446Z,95488.94
2018-05-01T00:15:15.368Z,95485.83
2018-05-01T00:17:45.318Z,95482.31
2018-05-01T00:20:15.581Z,95489.22
2018-05-01T00:22:45.524Z,95482.55
2018-05-01T00:25:15.458Z,95487.54
2018-05-01T00:27:45.014Z,95484.77
2018-05-01T00:30:14.542Z,95490.63
2018-05-01T00:32:44.052Z,95487.92
2018-05-01T00:35:13.976Z,95492.06
2018-05-01T00:37:43.884Z,95490.95
2018-05-01T00:40:13.798Z,95488.95
2018-05-01T00:42:43.786Z,95489.50
2018-05-01T00:45:13.295Z,95485.48
2018-05-01T00:47:42.874Z,95491.53
2018-05-01T00:50:12.094Z,95490.20
2018-05-01T00:52:45.526Z,95489.64
2018-05-01T00:55:15.448Z,95492.96
2018-05-01T00:57:45.360Z,95486.77
2018-05-01T01:00:15.300Z,95491.44
2018-05-01T01:02:44.808Z,95489.72
2018-05-01T01:05:14.359Z,95490.53
2018-05-01T01:07:43.878Z,95491.44
2018-05-01T01:10:13.414Z,95488.03
2018-05-01T01:12:42.957Z,95493.21
2018-05-01T01:15:12.474Z,95494.19
2018-05-01T01:17:41.982Z,95493.80
2018-05-01T01:20:11.497Z,95488.80
2018-05-01T01:22:41.032Z,95486.29
2018-05-01T01:25:10.566Z,95484.42
2018-05-01T01:27:40.209Z,95482.31
2018-05-01T01:30:09.757Z,95489.77
2018-05-01T01:32:39.002Z,95487.30
2018-05-01T01:35:06.836Z,95492.44
2018-05-01T01:37:34.445Z,95494.35
2018-05-01T01:40:02.300Z,95491.63
2018-05-01T01:42:30.115Z,95492.74
2018-05-01T01:44:58.333Z,95506.73
2018-05-01T01:47:26.153Z,95503.63
2018-05-01T01:49:54.374Z,95512.27
2018-05-01T01:52:22.183Z,95517.67
2018-05-01T01:54:50.408Z,95521.16
2018-05-01T01:57:18.240Z,95517.28
2018-05-01T01:59:46.465Z,95518.28
2018-05-01T02:02:14.379Z,95521.40
2018-05-01T02:04:42.587Z,95527.00
2018-05-01T02:07:10.858Z,95523.97
2018-05-01T02:09:38.677Z,95530.85
2018-05-01T02:12:06.485Z,95521.70
2018-05-01T02:14:34.306Z,95530.66
2018-05-01T02:17:02.176Z,95531.83
2018-05-01T02:19:30.177Z,95527.86
2018-05-01T02:21:58.029Z,95526.97
2018-05-01T02:24:26.289Z,95530.83
2018-05-01T02:26:54.113Z,95529.23
2018-05-01T02:29:21.970Z,95529.16
2018-05-01T02:31:49.775Z,95523.20
2018-05-01T02:34:17.637Z,95523.52
2018-05-01T02:36:45.469Z,95526.11
2018-05-01T02:39:13.275Z,95525.11
2018-05-01T02:41:41.086Z,95526.73
2018-05-01T02:44:08.948Z,95523.64
2018-05-01T02:46:36.783Z,95521.03
2018-05-01T02:49:04.703Z,95517.94
2018-05-01T02:51:32.511Z,95519.84
2018-05-01T02:54:00.329Z,95522.16
2018-05-01T02:56:28.383Z,95520.59
2018-05-01T02:58:56.584Z,95519.23
2018-05-01T03:01:24.691Z,95524.88
2018-05-01T03:03:52.963Z,95525.55
2018-05-01T03:06:20.805Z,95516.92
2018-05-01T03:08:48.617Z,95519.42
2018-05-01T03:11:16.435Z,95519.41
2018-05-01T03:13:44.316Z,95522.59
2018-05-01T03:16:13.104Z,95521.88
2018-05-01T03:18:41.815Z,95523.69
2018-05-01T03:21:09.743Z,95520.12
2018-05-01T03:23:37.563Z,95518.63
2018-05-01T03:26:05.381Z,95520.56
2018-05-01T03:28:33.187Z,95529.25
2018-05-01T03:31:01.009Z,95524.86
2018-05-01T03:33:28.815Z,95531.92
2018-05-01T03:35:56.635Z,95534.13
2018-05-01T03:38:24.477Z,95538.62
2018-05-01T03:40:52.347Z,95539.19
2018-05-01T03:43:20.143Z,95535.89
2018-05-01T03:45:47.989Z,95549.36
2018-05-01T03:48:15.803Z,95546.35
2018-05-01T03:50:43.618Z,95552.15
2018-05-01T03:53:11.435Z,95556.76
2018-05-01T03:55:39.327Z,95556.76
2018-05-01T03:58:07.565Z,95558.27
2018-05-01T04:00:35.410Z,95562.26
2018-05-01T04:03:03.236Z,95565.41
2018-05-01T04:05:31.275Z,95567.44
2018-05-01T04:07:59.115Z,95568.62
2018-05-01T04:10:29.115Z,95568.90
2018-05-01T04:12:56.952Z,95567.89
2018-05-01T04:15:25.251Z,95567.55
2018-05-01T04:17:53.112Z,95572.80
2018-05-01T04:20:21.333Z,95574.93
2018-05-01T04:22:49.179Z,95577.02
2018-05-01T04:25:17.069Z,95571.44
2018-05-01T04:27:45.027Z,95583.30
2018-05-01T04:30:12.857Z,95582.90
2018-05-01T04:32:41.271Z,95581.18
2018-05-01T04:35:09.096Z,95583.15
2018-05-01T04:37:37.318Z,95586.51
2018-05-01T04:40:05.332Z,95587.31
2018-05-01T04:42:33.143Z,95600.94
2018-05-01T04:45:00.956Z,95608.92
2018-05-01T04:47:28.929Z,95605.06
2018-05-01T04:49:56.816Z,95612.23
2018-05-01T04:52:25.046Z,95612.27
2018-05-01T04:54:53.297Z,95620.22
2018-05-01T04:57:21.127Z,95614.82
2018-05-01T04:59:49.338Z,95620.87
2018-05-01T05:02:17.155Z,95625.50
2018-05-01T05:04:44.983Z,95620.09
2018-05-01T05:07:12.825Z,95631.56
2018-05-01T05:09:40.645Z,95634.06
2018-05-01T05:12:08.453Z,95628.10
2018-05-01T05:14:36.320Z,95628.92
2018-05-01T05:17:04.144Z,95625.17
2018-05-01T05:19:31.954Z,95626.35
2018-05-01T05:21:59.793Z,95629.64
2018-05-01T05:24:27.625Z,95626.50
2018-05-01T05:26:55.445Z,95624.38
2018-05-01T05:29:23.414Z,95629.62
2018-05-01T05:31:51.628Z,95628.62
2018-05-01T05:34:19.443Z,95636.59
2018-05-01T05:36:47.676Z,95637.79
2018-05-01T05:39:15.491Z,95640.53
2018-05-01T05:41:43.701Z,95640.33
2018-05-01T05:44:11.519Z,95640.34
2018-05-01T05:46:39.733Z,95651.60
2018-05-01T05:49:07.317Z,95651.98
2018-05-01T05:51:35.141Z,95652.00
2018-05-01T05:54:03.402Z,95651.40
2018-05-01T05:56:31.722Z,95659.17
2018-05-01T05:58:59.523Z,95660.34
2018-05-01T06:01:27.348Z,95658.17
2018-05-01T06:03:55.166Z,95662.27
2018-05-01T06:06:23.003Z,95659.54
2018-05-01T06:08:50.951Z,95667.89
2018-05-01T06:11:18.755Z,95671.95
2018-05-01T06:13:46.572Z,95678.03
2018-05-01T06:16:14.593Z,95683.30
2018-05-01T06:18:42.429Z,95683.67
2018-05-01T06:21:10.414Z,95686.21
2018-05-01T06:23:38.218Z,95689.15
2018-05-01T06:26:06.501Z,95691.45
2018-05-01T06:28:34.707Z,95687.77
2018-05-01T06:31:02.682Z,95697.53
2018-05-01T06:33:30.539Z,95702.18
2018-05-01T06:35:58.951Z,95701.02
2018-05-01T06:38:26.779Z,95706.88
2018-05-01T06:40:54.607Z,95711.14
2018-05-01T06:43:22.499Z,95713.44
2018-05-01T06:45:50.722Z,95701.59
2018-05-01T06:48:18.565Z,95707.24
2018-05-01T06:50:46.383Z,95705.64
2018-05-01T06:53:14.422Z,95705.64
2018-05-01T06:55:42.742Z,95706.59
2018-05-01T06:58:10.967Z,95704.59
2018-05-01T07:00:38.801Z,95701.69
2018-05-01T07:03:06.619Z,95701.28
2018-05-01T07:05:34.451Z,95696.06
2018-05-01T07:08:02.259Z,95689.44
2018-05-01T07:10:30.083Z,95696.06
2018-05-01T07:12:57.891Z,95695.64
2018-05-01T07:15:25.729Z,95696.69
2018-05-01T07:17:54.065Z,95686.00
2018-05-01T07:20:22.350Z,95698.41
2018-05-01T07:22:50.550Z,95691.56
2018-05-01T07:25:18.432Z,95695.70
2018-05-01T07:27:46.281Z,95694.70
2018-05-01T07:30:14.117Z,95690.49
2018-05-01T07:32:42.329Z,95690.05
2018-05-01T07:35:10.145Z,95675.25
2018-05-01T07:37:38.384Z,95673.50
2018-05-01T07:40:06.216Z,95672.75
2018-05-01T07:42:34.094Z,95670.39
2018-05-01T07:45:01.932Z,95672.00
2018-05-01T07:47:30.136Z,95690.09
2018-05-01T07:49:57.982Z,95706.64
2018-05-01T07:52:26.232Z,95718.13
2018-05-01T07:54:53.822Z,95725.50
2018-05-01T07:57:21.630Z,95719.89
2018-05-01T07:59:49.450Z,95722.80
2018-05-01T08:02:17.675Z,95726.69
2018-05-01T08:04:45.516Z,95737.19
2018-05-01T08:07:13.452Z,95746.72
2018-05-01T08:09:41.678Z,95747.30
2018-05-01T08:12:09.579Z,95750.00
2018-05-01T08:14:37.616Z,95747.87
2018-05-01T08:17:05.629Z,95756.23
2018-05-01T08:19:33.858Z,95757.79
2018-05-01T08:22:01.673Z,95757.59
2018-05-01T08:24:29.982Z,95748.27
2018-05-01T08:26:57.888Z,95754.06
2018-05-01T08:29:25.722Z,95756.61
2018-05-01T08:31:53.606Z,95755.07
2018-05-01T08:34:21.425Z,95749.23
2018-05-01T08:36:49.645Z,95757.56
2018-05-01T08:39:17.493Z,95758.71
2018-05-01T08:41:45.364Z,95756.98
2018-05-01T08:44:13.243Z,95752.70
2018-05-01T08:46:41.127Z,95755.98
2018-05-01T08:49:08.969Z,95771.31
2018-05-01T08:51:36.789Z,95790.98
2018-05-01T08:54:05.025Z,95792.36
2018-05-01T08:56:32.859Z,95793.71
2018-05-01T08:59:00.703Z,95796.84
2018-05-01T09:01:28.985Z,95805.38
2018-05-01T09:03:57.255Z,95799.75
2018-05-01T09:06:25.095Z,95813.37
2018-05-01T09:08:52.911Z,95812.18
2018-05-01T09:11:20.711Z,95799.55
2018-05-01T09:13:48.568Z,95798.95
2018-05-01T09:16:16.397Z,95804.19
2018-05-01T09:18:44.614Z,95801.48
2018-05-01T09:21:12.448Z,95804.02
2018-05-01T09:23:40.294Z,95797.79
2018-05-01T09:26:08.515Z,95795.28
2018-05-01T09:28:36.531Z,95784.59
2018-05-01T09:31:04.358Z,95783.62
2018-05-01T09:33:32.280Z,95781.04
2018-05-01T09:36:00.503Z,95788.06
2018-05-01T09:38:28.404Z,95782.77
2018-05-01T09:40:56.432Z,95790.37
2018-05-01T09:43:24.255Z,95791.29
2018-05-01T09:45:52.536Z,95795.59
2018-05-01T09:48:20.789Z,95794.20
2018-05-01T09:50:48.812Z,95790.95
2018-05-01T09:53:18.193Z,95793.47
2018-05-01T09:55:47.872Z,95785.63
2018-05-01T09:58:17.415Z,95785.28
2018-05-01T10:00:46.733Z,95787.98
2018-05-01T10:03:16.019Z,95782.63
2018-05-01T10:05:45.551Z,95778.92
2018-05-01T10:08:15.066Z,95775.57
2018-05-01T10:10:44.590Z,95773.79
2018-05-01T10:13:14.115Z,95783.25
2018-05-01T10:15:44.079Z,95781.89
2018-05-01T10:18:13.615Z,95773.52
2018-05-01T10:20:43.132Z,95771.21
2018-05-01T10:23:12.669Z,95766.05
2018-05-01T10:25:42.392Z,95764.92
2018-05-01T10:28:11.682Z,95773.22
2018-05-01T10:30:41.235Z,95770.89
2018-05-01T10:33:10.776Z,95763.67
2018-05-01T10:35:40.703Z,95767.29
2018-05-01T10:38:10.688Z,95767.94
2018-05-01T10:40:40.306Z,95762.00
2018-05-01T10:43:09.859Z,95751.61
2018-05-01T10:45:39.207Z,95747.66
2018-05-01T10:48:09.247Z,95746.64
2018-05-01T10:50:39.159Z,95753.59
2018-05-01T10:53:09.078Z,95757.70
2018-05-01T10:55:39.006Z,95763.93
2018-05-01T10:58:08.918Z,95767.92
2018-05-01T11:00:38.848Z,95768.51
2018-05-01T11:03:08.993Z,95763.63
2018-05-01T11:05:38.525Z,95771.58
2018-05-01T11:08:08.033Z,95764.44
2018-05-01T11:10:37.607Z,95757.14
2018-05-01T11:13:06.909Z,95747.36
2018-05-01T11:15:36.880Z,95745.23
2018-05-01T11:18:06.830Z,95747.06
2018-05-01T11:20:36.348Z,95746.69
2018-05-01T11:23:05.873Z,95745.44
2018-05-01T11:25:35.391Z,95753.70
2018-05-01T11:28:04.965Z,95751.98
2018-05-01T11:30:34.541Z,95751.91
2018-05-01T11:33:04.678Z,95745.76
2018-05-01T11:35:34.201Z,95743.89
2018-05-01T11:38:03.496Z,95744.43
2018-05-01T11:40:33.053Z,95748.75
2018-05-01T11:43:02.611Z,95741.31
2018-05-01T11:45:32.129Z,95743.67
2018-05-01T11:48:01.672Z,95740.36
2018-05-01T11:50:31.191Z,95740.37
2018-05-01T11:53:01.114Z,95746.32
2018-05-01T11:55:31.067Z,95742.78
2018-05-01T11:58:00.581Z,95748.19
2018-05-01T12:00:30.110Z,95753.51
2018-05-01T12:02:59.425Z,95745.22
2018-05-01T12:05:28.622Z,95738.28
2018-05-01T12:07:58.136Z,95743.01
2018-05-01T12:10:28.056Z,95743.78
2018-05-01T12:12:57.782Z,95747.20
2018-05-01T12:15:27.962Z,95743.34
2018-05-01T12:17:57.465Z,95744.70
2018-05-01T12:20:26.998Z,95740.70
2018-05-01T12:22:56.925Z,95742.96
2018-05-01T12:25:26.850Z,95745.89
2018-05-01T12:27:57.162Z,95752.58
2018-05-01T12:30:27.156Z,95747.63
2018-05-01T12:32:56.699Z,95728.56
2018-05-01T12:35:26.350Z,95726.49
2018-05-01T12:37:55.872Z,95727.38
2018-05-01T12:40:25.176Z,95722.55
2018-05-01T12:42:54.526Z,95716.39
2018-05-01T12:45:24.033Z,95720.20
2018-05-01T12:47:53.592Z,95718.09
2018-05-01T12:50:23.154Z,95713.89
2018-05-01T12:52:53.268Z,95712.95
2018-05-01T12:55:22.800Z,95709.90
2018-05-01T12:57:52.316Z,95703.63
2018-05-01T13:00:21.834Z,95702.13
2018-05-01T13:02:51.355Z,95713.87
2018-05-01T13:05:21.263Z,95712.55
2018-05-01T13:07:50.792Z,95719.41
2018-05-01T13:10:20.699Z,95719.64
2018-05-01T13:12:50.713Z,95719.83
2018-05-01T13:15:20.414Z,95718.13
2018-05-01T13:17:50.340Z,95711.01
2018-05-01T13:20:20.304Z,95703.23
2018-05-01T13:22:49.884Z,95710.72
2018-05-01T13:25:19.760Z,95710.93
2018-05-01T13:27:49.748Z,95705.15
2018-05-01T13:30:19.328Z,95692.50
2018-05-01T13:32:48.845Z,95705.20
2018-05-01T13:35:18.370Z,95699.48
2018-05-01T13:37:47.941Z,95693.63
2018-05-01T13:40:17.673Z,95695.33
2018-05-01T13:42:47.190Z,95703.88
2018-05-01T13:45:16.841Z,95702.89
2018-05-01T13:47:46.514Z,95699.84
2018-05-01T13:50:16.213Z,95687.64
2018-05-01T13:52:45.726Z,95688.30
2018-05-01T13:55:15.328Z,95678.90
2018-05-01T13:57:45.021Z,95675.84
2018-05-01T14:00:14.537Z,95674.97
2018-05-01T14:02:44.081Z,95669.05
2018-05-01T14:05:13.597Z,95671.74
2018-05-01T14:07:43.538Z,95671.11
2018-05-01T14:10:13.076Z,95666.27
2018-05-01T14:12:42.602Z,95661.20
2018-05-01T14:15:12.128Z,95657.73
2018-05-01T14:17:41.654Z,95665.58
2018-05-01T14:20:11.224Z,95667.88
2018-05-01T14:22:40.765Z,95667.38
2018-05-01T14:25:10.695Z,95658.94
2018-05-01T14:27:40.250Z,95668.33
2018-05-01T14:30:09.789Z,95673.44
2018-05-01T14:32:39.704Z,95666.09
2018-05-01T14:35:09.630Z,95671.11
2018-05-01T14:37:39.176Z,95678.45
2018-05-01T14:40:08.723Z,95669.98
2018-05-01T14:42:38.646Z,95672.95
2018-05-01T14:45:08.567Z,95665.86
2018-05-01T14:47:38.496Z,95661.63
2018-05-01T14:50:08.023Z,95659.38
2018-05-01T14:52:37.543Z,95655.73
2018-05-01T14:55:07.077Z,95658.42
2018-05-01T14:57:36.594Z,95654.59
2018-05-01T15:00:06.530Z,95656.61
2018-05-01T15:02:36.098Z,95660.77
2018-05-01T15:05:05.341Z,95660.59
2018-05-01T15:07:34.886Z,95658.70
2018-05-01T15:10:04.433Z,95657.91
2018-05-01T15:12:34.359Z,95658.79
2018-05-01T15:15:04.347Z,95657.66
2018-05-01T15:17:33.871Z,95656.37
2018-05-01T15:20:03.797Z,95651.07
2018-05-01T15:22:33.791Z,95656.21
2018-05-01T15:25:03.332Z,95658.13
2018-05-01T15:27:32.875Z,95657.08
2018-05-01T15:30:02.470Z,95652.59
2018-05-01T15:32:32.120Z,95647.86
2018-05-01T15:37:29.586Z,95646.56
2018-05-01T15:39:59.607Z,95650.31
2018-05-01T15:42:29.192Z,95643.39
2018-05-01T15:44:58.717Z,95649.92
2018-05-01T15:47:28.257Z,95644.92
2018-05-01T15:49:58.169Z,95647.08
2018-05-01T15:52:28.128Z,95641.25
2018-05-01T15:54:58.523Z,95645.78
2018-05-01T15:57:28.055Z,95648.09
2018-05-01T15:59:57.577Z,95649.23
2018-05-01T16:02:27.204Z,95650.28
2018-05-01T16:04:56.723Z,95650.41
2018-05-01T16:07:26.319Z,95652.52
2018-05-01T16:09:55.892Z,95656.64
2018-05-01T16:12:25.404Z,95657.18
2018-05-01T16:14:54.923Z,95657.47
2018-05-01T16:17:24.304Z,95662.08
2018-05-01T16:19:53.692Z,95659.91
2018-05-01T16:22:23.223Z,95653.55
2018-05-01T16:24:52.795Z,95664.04
2018-05-01T16:27:22.102Z,95653.09
2018-05-01T16:29:51.416Z,95644.11
2018-05-01T16:32:20.967Z,95640.45
2018-05-01T16:34:50.497Z,95642.70
2018-05-01T16:37:20.438Z,95627.80
2018-05-01T16:39:49.978Z,95626.92
2018-05-01T16:42:19.509Z,95634.22
2018-05-01T16:44:49.706Z,95633.84
2018-05-01T16:47:19.231Z,95628.23
2018-05-01T16:49:48.743Z,95618.52
2018-05-01T16:52:18.280Z,95624.75
2018-05-01T16:54:47.870Z,95624.56
2018-05-01T16:57:17.790Z,95621.17
2018-05-01T16:59:47.725Z,95628.31
2018-05-01T17:02:17.267Z,95629.08
2018-05-01T17:04:46.794Z,95624.69
2018-05-01T17:07:16.368Z,95619.69
2018-05-01T17:09:45.892Z,95628.63
2018-05-01T17:12:15.413Z,95623.98
2018-05-01T17:14:44.975Z,95619.47
2018-05-01T17:17:14.547Z,95614.94
2018-05-01T17:19:44.497Z,95615.27
2018-05-01T17:22:14.021Z,95617.63
2018-05-01T17:24:43.565Z,95623.20
2018-05-01T17:27:13.551Z,95619.55
2018-05-01T17:29:43.263Z,95613.99
2018-05-01T17:32:13.224Z,95613.88
2018-05-01T17:34:43.133Z,95615.50
2018-05-01T17:37:13.067Z,95613.75
2018-05-01T17:39:42.622Z,95619.62
2018-05-01T17:42:12.195Z,95614.54
2018-05-01T17:44:41.795Z,95619.14
2018-05-01T17:47:11.309Z,95624.69
2018-05-01T17:49:40.848Z,95618.31
2018-05-01T17:52:10.396Z,95621.88
2018-05-01T17:54:40.371Z,95623.84
2018-05-01T17:57:10.217Z,95616.09
2018-05-01T17:59:40.145Z,95623.36
2018-05-01T18:02:10.144Z,95624.41
2018-05-01T18:04:40.090Z,95630.08
2018-05-01T18:07:09.695Z,95630.91
2018-05-01T18:09:39.211Z,95626.09
2018-05-01T18:12:08.731Z,95623.88
2018-05-01T18:14:38.278Z,95627.04
2018-05-01T18:17:08.247Z,95623.55
2018-05-01T18:19:37.848Z,95628.16
2018-05-01T18:22:07.375Z,95626.36
2018-05-01T18:24:36.996Z,95634.31
2018-05-01T18:27:06.943Z,95631.41
2018-05-01T18:29:36.914Z,95634.25
2018-05-01T18:32:06.486Z,95636.58
2018-05-01T18:34:36.026Z,95637.62
2018-05-01T18:37:05.755Z,95639.52
2018-05-01T18:39:35.291Z,95640.50
2018-05-01T18:42:05.255Z,95637.20
2018-05-01T18:44:34.825Z,95637.77
2018-05-01T18:47:04.361Z,95635.23
2018-05-01T18:49:34.265Z,95632.20
2018-05-01T18:52:03.804Z,95634.66
2018-05-01T18:54:33.411Z,95630.53
2018-05-01T18:57:02.998Z,95633.97
2018-05-01T18:59:32.532Z,95632.19
2018-05-01T19:02:02.274Z,95638.75
2018-05-01T19:04:32.186Z,95641.02
2018-05-01T19:07:01.937Z,95641.87
2018-05-01T19:09:31.484Z,95642.07
2018-05-01T19:12:00.775Z,95642.39
2018-05-01T19:14:30.116Z,95651.49
2018-05-01T19:16:59.803Z,95649.77
2018-05-01T19:19:29.419Z,95645.94
2018-05-01T19:21:59.360Z,95646.42
2018-05-01T19:24:28.879Z,95649.64
2018-05-01T19:26:58.426Z,95655.22
2018-05-01T19:29:27.971Z,95658.83
2018-05-01T19:31:57.893Z,95661.84
2018-05-01T19:34:27.505Z,95666.55
2018-05-01T19:36:57.177Z,95665.58
2018-05-01T19:39:26.709Z,95664.61
2018-05-01T19:41:56.649Z,95655.06
2018-05-01T19:44:26.167Z,95660.77
2018-05-01T19:46:55.703Z,95661.30
2018-05-01T19:49:25.255Z,95662.20
2018-05-01T19:51:54.781Z,95672.86
2018-05-01T19:54:24.335Z,95672.27
2018-05-01T19:56:53.868Z,95672.89
2018-05-01T19:59:24.749Z,95673.52
2018-05-01T20:01:54.319Z,95676.98
2018-05-01T20:04:23.867Z,95677.73
2018-05-01T20:06:53.452Z,95682.51
2018-05-01T20:09:22.996Z,95683.33
2018-05-01T20:11:52.532Z,95685.05
2018-05-01T20:14:22.471Z,95685.83
2018-05-01T20:16:51.996Z,95678.02
2018-05-01T20:19:21.532Z,95680.12
2018-05-01T20:21:51.081Z,95676.05
2018-05-01T20:24:20.627Z,95672.73
2018-05-01T20:26:50.226Z,95674.86
2018-05-01T20:29:19.890Z,95669.27
2018-05-01T20:31:49.839Z,95672.64
2018-05-01T20:34:19.383Z,95667.65
2018-05-01T20:36:50.212Z,95669.29
2018-05-01T20:39:19.724Z,95671.97
2018-05-01T20:41:48.942Z,95676.25
2018-05-01T20:44:18.949Z,95667.75
2018-05-01T20:46:48.619Z,95661.52
2018-05-01T20:49:18.255Z,95662.41
2018-05-01T20:51:48.372Z,95664.17
2018-05-01T20:54:17.673Z,95664.23
2018-05-01T20:56:47.243Z,95667.46
2018-05-01T20:59:16.777Z,95668.60
2018-05-01T21:01:46.369Z,95664.24
2018-05-01T21:04:16.060Z,95664.92
2018-05-01T21:06:45.672Z,95665.95
2018-05-01T21:09:15.385Z,95659.44
2018-05-01T21:11:45.268Z,95651.86
2018-05-01T21:14:15.182Z,95653.06
2018-05-01T21:16:45.913Z,95649.89
2018-05-01T21:19:15.665Z,95657.75
2018-05-01T21:21:45.972Z,95653.92
2018-05-01T21:24:15.497Z,95651.50
2018-05-01T21:26:45.099Z,95652.16
2018-05-01T21:29:14.868Z,95651.57
2018-05-01T21:31:44.400Z,95647.41
2018-05-01T21:34:13.950Z,95636.62
2018-05-01T21:36:43.564Z,95639.43
2018-05-01T21:39:13.089Z,95626.84
2018-05-01T21:41:43.044Z,95630.38
2018-05-01T21:44:12.638Z,95622.92
2018-05-01T21:46:43.329Z,95627.38
2018-05-01T21:49:12.867Z,95630.41
2018-05-01T21:51:42.775Z,95627.33
2018-05-01T21:54:11.999Z,95629.25
2018-05-01T21:56:41.518Z,95633.52
2018-05-01T21:59:11.128Z,95630.66
2018-05-01T22:04:16.298Z,95630.72
2018-05-01T22:06:45.890Z,95638.85
2018-05-01T22:09:15.426Z,95629.46
2018-05-01T22:11:44.940Z,95635.23
2018-05-01T22:14:14.554Z,95628.16
2018-05-01T22:16:44.162Z,95629.98
2018-05-01T22:19:13.702Z,95630.09
2018-05-01T22:21:43.636Z,95633.96
2018-05-01T22:24:13.200Z,95630.48
2018-05-01T22:26:42.796Z,95627.95
2018-05-01T22:29:12.519Z,95631.03
2018-05-01T22:31:42.545Z,95624.11
2018-05-01T22:34:12.662Z,95621.60
2018-05-01T22:36:42.600Z,95621.13
2018-05-01T22:39:12.214Z,95617.04
2018-05-01T22:41:41.758Z,95615.12
2018-05-01T22:44:11.270Z,95615.56
2018-05-01T22:46:40.901Z,95617.17
2018-05-01T22:49:10.464Z,95622.08
2018-05-01T22:51:39.992Z,95618.84
2018-05-01T22:54:09.594Z,95619.83
2018-05-01T22:56:39.127Z,95617.91
2018-05-01T22:59:08.416Z,95614.88
2018-05-01T23:01:37.944Z,95622.09
2018-05-01T23:04:07.911Z,95621.52
2018-05-01T23:06:37.422Z,95618.25
2018-05-01T23:09:06.149Z,95623.28
2018-05-01T23:11:35.906Z,95625.27
2018-05-01T23:14:07.280Z,95623.48
2018-05-01T23:16:36.807Z,95623.28
2018-05-01T23:19:06.170Z,95629.34
2018-05-01T23:21:35.845Z,95624.77
2018-05-01T23:24:05.441Z,95623.97
2018-05-01T23:26:35.383Z,95626.45
2018-05-01T23:29:04.933Z,95628.94
2018-05-01T23:31:34.471Z,95631.05
2018-05-01T23:34:04.503Z,95629.36
2018-05-01T23:36:34.429Z,95624.82
2018-05-01T23:39:03.729Z,95620.19
2018-05-01T23:41:33.526Z,95622.47
2018-05-01T23:44:03.188Z,95617.66
2018-05-01T23:46:32.984Z,95611.34
2018-05-01T23:49:02.665Z,95604.41
2018-05-01T23:51:32.391Z,95607.77
2018-05-01T23:54:02.179Z,95601.48
2018-05-01T23:56:31.928Z,95605.59
2018-05-01T23:59:01.675Z,95601.81
